Time;durP1;ratioP1;P1;durP2;ratioP2;P2;SDS_P1;SDS_P2;PMS_P1;PMS_P2;Temp;Humidity;BMP_temperature;BMP_pressure;BME280_temperature;BME280_humidity;BME280_pressure;Samples;Min_cycle;Max_cycle;Signal;HPM_P1;HPM_P2
2021/05/08 00:01:30;;;;;;;1.63;1.08;;;17.30;53.60;;;;;;4995178;28;20124;-66
2021/05/08 00:03:55;;;;;;;1.00;0.90;;;16.70;53.30;;;;;;4994921;28;20069;-66
2021/05/08 00:06:21;;;;;;;2.00;1.20;;;16.70;53.30;;;;;;4995059;28;20157;-67
2021/05/08 00:08:47;;;;;;;1.42;1.08;;;16.70;53.30;;;;;;4995003;28;20050;-66
2021/05/08 00:11:12;;;;;;;1.73;1.10;;;17.30;53.70;;;;;;4994971;28;20036;-66
2021/05/08 00:13:38;;;;;;;1.13;1.02;;;16.70;53.40;;;;;;4977345;28;20031;-66
2021/05/08 00:16:04;;;;;;;2.70;1.13;;;16.70;53.40;;;;;;4993579;28;20073;-68
2021/05/08 00:18:29;;;;;;;1.15;1.05;;;16.70;53.40;;;;;;4995055;28;20034;-66
2021/05/08 00:20:56;;;;;;;1.38;1.27;;;17.10;53.70;;;;;;4994701;28;20033;-66
2021/05/08 00:23:21;;;;;;;1.23;1.00;;;16.60;53.40;;;;;;4994610;28;20174;-65
2021/05/08 00:25:47;;;;;;;2.13;1.30;;;16.70;53.50;;;;;;4994478;28;20022;-65
2021/05/08 00:28:12;;;;;;;1.67;1.00;;;16.70;53.50;;;;;;4994803;28;20418;-65
2021/05/08 00:30:38;;;;;;;1.08;1.00;;;16.70;53.50;;;;;;4994638;28;20027;-65
2021/05/08 00:33:04;;;;;;;2.40;0.90;;;16.60;53.40;;;;;;4994449;28;20507;-66
2021/05/08 00:35:29;;;;;;;1.23;1.05;;;16.60;53.50;;;;;;4994371;28;20483;-65
2021/05/08 00:37:55;;;;;;;1.50;1.20;;;16.60;53.50;;;;;;4994485;28;20466;-65
2021/05/08 00:40:20;;;;;;;1.50;1.25;;;16.40;53.50;;;;;;4994264;28;20077;-65
2021/05/08 00:42:46;;;;;;;1.60;1.23;;;16.60;53.60;;;;;;4992966;28;20030;-65
2021/05/08 00:45:12;;;;;;;1.40;1.10;;;16.90;53.70;;;;;;4994362;28;20360;-65
2021/05/08 00:47:49;;;;;;;2.00;1.40;;;16.60;53.60;;;;;;4992904;28;20034;-65
2021/05/08 00:50:18;;;;;;;1.25;1.05;;;16.60;53.70;;;;;;4994256;28;20045;-65
2021/05/08 00:52:44;;;;;;;1.10;1.00;;;16.80;53.80;;;;;;4993905;28;20582;-66
2021/05/08 00:55:10;;;;;;;1.25;1.10;;;16.60;53.70;;;;;;4993934;28;20022;-65
2021/05/08 00:57:36;;;;;;;1.25;1.00;;;16.60;53.70;;;;;;4993719;28;20514;-66
2021/05/08 01:00:05;;;;;;;0.88;0.88;;;16.60;53.70;;;;;;4993848;28;20030;-65
2021/05/08 01:02:31;;;;;;;2.23;1.53;;;16.50;53.70;;;;;;4993876;28;20033;-65
2021/05/08 01:04:57;;;;;;;1.73;1.23;;;16.60;53.70;;;;;;4993524;28;20100;-65
2021/05/08 01:07:24;;;;;;;1.60;1.23;;;16.50;53.70;;;;;;4993748;28;20022;-65
2021/05/08 01:09:51;;;;;;;1.10;1.00;;;16.50;53.70;;;;;;4976280;28;20027;-65
2021/05/08 01:12:17;;;;;;;1.10;1.00;;;16.50;53.70;;;;;;4993898;28;20109;-65
2021/05/08 01:14:42;;;;;;;1.75;1.17;;;16.50;53.70;;;;;;4993857;28;20578;-66
2021/05/08 01:17:08;;;;;;;1.25;1.15;;;16.50;53.70;;;;;;4976089;28;20057;-66
2021/05/08 01:19:34;;;;;;;1.50;1.20;;;16.50;53.80;;;;;;4993545;28;20106;-66
2021/05/08 01:22:01;;;;;;;1.40;0.90;;;17.00;54.00;;;;;;4993783;28;20046;-65
2021/05/08 01:24:26;;;;;;;1.35;1.00;;;16.40;53.80;;;;;;4976116;28;20436;-66
2021/05/08 01:26:52;;;;;;;1.95;0.98;;;16.20;53.70;;;;;;4993499;28;20061;-66
2021/05/08 01:29:18;;;;;;;1.48;1.05;;;16.20;53.70;;;;;;4993374;28;20495;-65
2021/05/08 01:31:43;;;;;;;2.30;1.13;;;16.20;53.70;;;;;;4993560;28;20038;-65
2021/05/08 01:34:09;;;;;;;1.95;0.90;;;16.40;53.80;;;;;;4993594;28;20537;-66
2021/05/08 01:36:35;;;;;;;0.95;0.85;;;16.40;53.90;;;;;;4993431;28;20029;-65
2021/05/08 01:39:03;;;;;;;2.20;1.13;;;16.40;53.80;;;;;;4993561;28;20068;-66
2021/05/08 01:41:29;;;;;;;1.10;0.90;;;;;;;;;;4993338;28;20018;-66
2021/05/08 01:43:55;;;;;;;1.30;1.10;;;16.40;53.30;;;;;;4993398;28;20023;-65
2021/05/08 01:46:20;;;;;;;1.88;1.15;;;16.30;78.80;;;;;;4993344;28;20027;-65
2021/05/08 01:48:46;;;;;;;1.00;0.93;;;16.40;53.90;;;;;;4993351;28;20022;-65
2021/05/08 01:51:12;;;;;;;2.08;1.10;;;16.30;53.80;;;;;;4993245;28;20027;-66
2021/05/08 01:53:38;;;;;;;1.67;0.93;;;16.30;53.90;;;;;;4993111;28;20038;-66
2021/05/08 01:56:05;;;;;;;1.77;1.00;;;16.70;54.10;;;;;;4993470;28;20022;-66
2021/05/08 01:58:30;;;;;;;1.20;0.88;;;16.30;78.80;;;;;;4993013;28;20062;-66
2021/05/08 02:00:56;;;;;;;1.95;1.00;;;16.40;54.10;;;;;;4975756;28;20046;-65
2021/05/08 02:03:22;;;;;;;1.02;0.90;;;16.30;53.90;;;;;;4995701;28;20078;-65
2021/05/08 02:05:48;;;;;;;0.90;0.90;;;16.20;54.00;;;;;;4997509;28;20101;-65
2021/05/08 02:08:14;;;;;;;1.25;0.80;;;16.40;54.00;;;;;;4997410;28;20061;-65
2021/05/08 02:10:43;;;;;;;1.35;1.00;;;16.30;54.00;;;;;;4997139;28;20022;-65
2021/05/08 02:13:09;;;;;;;2.67;1.20;;;16.00;53.90;;;;;;4996951;28;20061;-65
2021/05/08 02:15:36;;;;;;;0.68;0.60;;;16.30;54.00;;;;;;4996970;28;20038;-65
2021/05/08 02:18:03;;;;;;;1.23;0.80;;;16.30;54.00;;;;;;4979445;28;20034;-66
2021/05/08 02:20:31;;;;;;;1.10;0.85;;;16.10;54.00;;;;;;4997144;28;20019;-65
2021/05/08 02:23:00;;;;;;;1.42;1.00;;;16.30;54.10;;;;;;4997023;28;20400;-65
2021/05/08 02:25:27;;;;;;;2.05;0.60;;;16.30;80.10;;;;;;4996860;28;20092;-65
2021/05/08 02:27:53;;;;;;;0.60;0.60;;;16.20;54.00;;;;;;4996673;28;20025;-65
2021/05/08 02:30:28;;;;;;;1.83;1.10;;;16.20;54.00;;;;;;4996737;28;20146;-65
2021/05/08 02:32:54;;;;;;;1.17;0.93;;;16.20;54.10;;;;;;4996402;28;20494;-65
2021/05/08 02:35:21;;;;;;;1.58;1.00;;;16.30;54.10;;;;;;4996576;28;20023;-65
2021/05/08 02:37:47;;;;;;;1.33;0.90;;;16.20;54.10;;;;;;4979129;28;20030;-65
2021/05/08 02:40:15;;;;;;;0.73;0.70;;;16.20;54.10;;;;;;4996723;28;20054;-65
2021/05/08 02:42:42;;;;;;;1.05;0.90;;;16.20;54.10;;;;;;4978932;28;20026;-65
2021/05/08 02:45:09;;;;;;;1.25;0.90;;;16.00;54.00;;;;;;4996319;28;20475;-65
2021/05/08 02:47:36;;;;;;;1.05;0.80;;;16.20;54.10;;;;;;4996428;28;20380;-65
2021/05/08 02:50:02;;;;;;;1.33;1.02;;;16.20;54.10;;;;;;4996377;28;20101;-65
2021/05/08 02:52:28;;;;;;;1.15;0.90;;;16.20;54.10;;;;;;4996252;28;20054;-65
2021/05/08 02:54:53;;;;;;;1.63;0.68;;;16.20;54.10;;;;;;4996235;28;20019;-65
2021/05/08 02:57:19;;;;;;;0.80;0.70;;;16.20;54.10;;;;;;4995066;28;20027;-65
2021/05/08 02:59:44;;;;;;;0.95;0.80;;;16.10;54.10;;;;;;4996134;28;20106;-65
2021/05/08 03:02:10;;;;;;;1.50;1.15;;;16.10;54.10;;;;;;4996125;28;20030;-65
2021/05/08 03:04:36;;;;;;;1.50;0.70;;;16.20;54.20;;;;;;4995923;28;20447;-65
2021/05/08 03:07:02;;;;;;;0.70;0.70;;;16.20;54.20;;;;;;4978607;28;20022;-65
2021/05/08 03:09:29;;;;;;;1.15;0.75;;;15.90;54.10;;;;;;4978506;28;20054;-65
2021/05/08 03:11:55;;;;;;;0.77;0.77;;;16.10;54.20;;;;;;4995891;28;20101;-65
2021/05/08 03:14:20;;;;;;;1.13;1.00;;;16.10;54.20;;;;;;4994652;28;20117;-65
2021/05/08 03:16:46;;;;;;;1.00;0.73;;;16.10;54.20;;;;;;4978344;28;20022;-65
2021/05/08 03:19:12;;;;;;;0.75;0.75;;;16.10;54.20;;;;;;4995814;28;20034;-64
2021/05/08 03:21:37;;;;;;;0.85;0.68;;;16.10;54.20;;;;;;4996024;28;20019;-65
2021/05/08 03:24:04;;;;;;;0.85;0.70;;;16.10;54.20;;;;;;4995694;28;20048;-65
2021/05/08 03:26:29;;;;;;;1.00;0.70;;;16.10;54.30;;;;;;4995675;28;20034;-65
2021/05/08 03:28:55;;;;;;;1.35;0.82;;;16.50;54.40;;;;;;4995669;28;20029;-65
2021/05/08 03:31:21;;;;;;;1.23;0.80;;;16.00;54.20;;;;;;4994638;28;20109;-65
2021/05/08 03:33:46;;;;;;;0.70;0.70;;;16.20;80.10;;;;;;4995673;28;20057;-65
2021/05/08 03:36:12;;;;;;;1.67;0.80;;;16.00;54.20;;;;;;4995739;28;20022;-65
2021/05/08 03:38:38;;;;;;;0.70;0.70;;;16.20;54.30;;;;;;4995467;28;20023;-65
2021/05/08 03:41:04;;;;;;;0.50;0.50;;;16.00;54.20;;;;;;4995469;28;20121;-65
2021/05/08 03:43:30;;;;;;;0.90;0.80;;;16.00;54.20;;;;;;4995413;28;20026;-65
2021/05/08 03:45:57;;;;;;;1.25;0.70;;;15.90;54.20;;;;;;4994086;28;20065;-64
2021/05/08 03:48:23;;;;;;;0.75;0.70;;;16.00;54.20;;;;;;4977951;28;20034;-65
2021/05/08 03:50:48;;;;;;;0.50;0.50;;;16.20;54.40;;;;;;4995369;28;20113;-65
2021/05/08 03:53:15;;;;;;;1.00;0.90;;;16.00;54.20;;;;;;4995370;28;20121;-65
2021/05/08 03:55:41;;;;;;;2.03;0.70;;;16.10;54.30;;;;;;4995165;28;20089;-65
2021/05/08 03:58:07;;;;;;;1.30;0.88;;;16.00;54.20;;;;;;4994146;28;20507;-64
2021/05/08 04:00:33;;;;;;;1.48;0.90;;;16.00;54.20;;;;;;4995061;28;20067;-64
2021/05/08 04:02:59;;;;;;;0.85;0.70;;;16.00;54.20;;;;;;4995097;28;20101;-64
2021/05/08 04:05:25;;;;;;;0.90;0.73;;;15.90;54.20;;;;;;4995271;28;20030;-65
2021/05/08 04:07:51;;;;;;;0.80;0.68;;;16.00;54.30;;;;;;4995164;28;20030;-64
2021/05/08 04:10:18;;;;;;;1.75;0.70;;;15.90;79.90;;;;;;4994951;28;20053;-64
2021/05/08 04:12:44;;;;;;;1.15;0.70;;;15.90;79.00;;;;;;4994746;28;20037;-64
2021/05/08 04:15:09;;;;;;;0.80;0.60;;;16.00;54.30;;;;;;4994779;28;20026;-65
2021/05/08 04:17:35;;;;;;;0.95;0.60;;;;;;;;;;4994718;28;20022;-65
2021/05/08 04:20:01;;;;;;;1.10;0.60;;;16.00;79.30;;;;;;4993513;28;20113;-65
2021/05/08 04:22:27;;;;;;;0.73;0.73;;;15.80;54.20;;;;;;4994611;28;20022;-65
2021/05/08 04:24:52;;;;;;;0.65;0.60;;;15.90;54.20;;;;;;4994202;28;20031;-65
2021/05/08 04:27:18;;;;;;;1.15;0.77;;;16.00;54.30;;;;;;4994488;28;20023;-65
2021/05/08 04:29:44;;;;;;;1.98;0.60;;;15.80;54.20;;;;;;4994524;28;20022;-65
2021/05/08 04:32:09;;;;;;;0.80;0.63;;;15.80;54.20;;;;;;4994273;28;20026;-64
2021/05/08 04:34:35;;;;;;;1.20;0.50;;;15.90;54.30;;;;;;4994319;28;20022;-65
2021/05/08 04:37:00;;;;;;;1.35;0.55;;;15.70;54.20;;;;;;4994422;28;20026;-64
2021/05/08 04:39:26;;;;;;;2.25;0.70;;;16.10;54.40;;;;;;4994245;28;20030;-64
2021/05/08 04:41:51;;;;;;;1.33;0.80;;;15.90;54.30;;;;;;4994505;28;20349;-64
2021/05/08 04:44:17;;;;;;;1.10;0.70;;;15.90;54.30;;;;;;4992940;28;20041;-64
2021/05/08 04:46:43;;;;;;;1.58;0.70;;;15.90;54.40;;;;;;4994356;28;20019;-65
2021/05/08 04:49:09;;;;;;;0.70;0.70;;;15.80;54.30;;;;;;4994071;28;20030;-64
2021/05/08 04:51:34;;;;;;;0.88;0.68;;;15.70;54.30;;;;;;4994091;28;20614;-65
2021/05/08 04:54:00;;;;;;;0.85;0.60;;;16.30;54.60;;;;;;4992775;28;20117;-63
2021/05/08 04:56:25;;;;;;;1.73;0.80;;;15.70;54.20;;;;;;4993923;28;20026;-63
2021/05/08 04:58:51;;;;;;;0.93;0.80;;;15.90;54.40;;;;;;4992605;28;20033;-63
2021/05/08 05:01:16;;;;;;;0.90;0.80;;;15.90;54.40;;;;;;4994059;28;20545;-64
2021/05/08 05:03:42;;;;;;;0.82;0.70;;;15.70;54.30;;;;;;4993839;28;20443;-63
2021/05/08 05:06:08;;;;;;;1.42;0.80;;;15.70;54.30;;;;;;4994061;28;20371;-63
2021/05/08 05:08:33;;;;;;;0.73;0.73;;;15.90;55.00;;;;;;4993774;28;20030;-63
2021/05/08 05:10:59;;;;;;;1.00;0.80;;;15.90;54.40;;;;;;4993896;28;20535;-64
2021/05/08 05:13:25;;;;;;;0.68;0.68;;;15.80;54.30;;;;;;4993647;28;20049;-64
2021/05/08 05:15:51;;;;;;;1.02;0.70;;;15.60;54.30;;;;;;4993574;28;20028;-64
2021/05/08 05:18:18;;;;;;;0.73;0.73;;;15.80;54.40;;;;;;4993875;28;20446;-64
2021/05/08 05:20:45;;;;;;;0.60;0.50;;;15.80;54.30;;;;;;4993874;28;20018;-64
2021/05/08 05:23:11;;;;;;;1.17;0.70;;;15.80;54.30;;;;;;4993617;28;20426;-64
2021/05/08 05:25:37;;;;;;;1.27;0.90;;;15.80;54.40;;;;;;4993518;28;20078;-64
2021/05/08 05:28:03;;;;;;;1.25;0.65;;;15.80;54.40;;;;;;4993717;28;20062;-64
2021/05/08 05:30:29;;;;;;;1.60;0.90;;;15.80;54.40;;;;;;4993509;28;20109;-64
2021/05/08 05:32:55;;;;;;;0.60;0.60;;;15.80;54.40;;;;;;4993298;28;20515;-63
2021/05/08 05:35:21;;;;;;;1.02;0.75;;;15.80;54.40;;;;;;4993360;28;20480;-63
2021/05/08 05:37:47;;;;;;;1.35;0.80;;;15.60;54.80;;;;;;4992878;28;20019;-63
2021/05/08 05:40:13;;;;;;;0.50;0.50;;;15.90;54.40;;;;;;4993302;28;20491;-63
2021/05/08 05:42:39;;;;;;;0.70;0.70;;;15.90;80.40;;;;;;4993303;28;20435;-64
2021/05/08 05:45:06;;;;;;;0.70;0.70;;;16.20;54.60;;;;;;4993424;28;20022;-64
2021/05/08 05:47:32;;;;;;;0.47;0.47;;;15.80;54.40;;;;;;4993476;28;20034;-64
2021/05/08 05:49:59;;;;;;;0.70;0.70;;;15.80;54.50;;;;;;4993249;28;20368;-64
2021/05/08 05:52:24;;;;;;;0.80;0.65;;;16.60;54.90;;;;;;4993418;28;20018;-64
2021/05/08 05:54:51;;;;;;;1.00;0.82;;;15.80;54.40;;;;;;4975741;28;20069;-64
2021/05/08 05:57:18;;;;;;;1.50;0.80;;;15.80;54.40;;;;;;4993062;28;20018;-64
2021/05/08 05:59:44;;;;;;;1.75;1.15;;;15.80;54.50;;;;;;4993086;28;20574;-65
2021/05/08 06:02:11;;;;;;;1.00;0.52;;;15.80;54.30;;;;;;4993112;28;20068;-64
2021/05/08 06:04:37;;;;;;;2.88;0.57;;;15.80;54.20;;;;;;4992971;28;20634;-62
2021/05/08 06:07:04;;;;;;;0.70;0.60;;;15.90;54.40;;;;;;4992997;28;20034;-63
2021/05/08 06:09:30;;;;;;;0.95;0.80;;;15.90;54.40;;;;;;4975537;28;20061;-63
2021/05/08 06:11:57;;;;;;;0.90;0.70;;;15.60;54.20;;;;;;4992991;28;20062;-62
2021/05/08 06:14:26;;;;;;;1.92;0.80;;;15.80;54.50;;;;;;4992986;28;20084;-62
2021/05/08 06:16:55;;;;;;;1.15;0.70;;;15.80;54.50;;;;;;4992997;28;20029;-63
2021/05/08 06:19:21;;;;;;;1.48;0.98;;;15.80;54.60;;;;;;4993209;28;20027;-62
2021/05/08 06:21:47;;;;;;;0.93;0.70;;;15.80;54.60;;;;;;4993230;28;20074;-62
2021/05/08 06:24:13;;;;;;;0.82;0.73;;;15.80;55.40;;;;;;4992891;28;20353;-62
2021/05/08 06:26:38;;;;;;;0.70;0.60;;;15.80;54.70;;;;;;4992865;28;20057;-62
2021/05/08 06:29:04;;;;;;;1.77;0.80;;;15.80;54.80;;;;;;4992862;28;20060;-62
2021/05/08 06:31:30;;;;;;;1.55;0.73;;;15.80;54.70;;;;;;4992824;28;20014;-62
2021/05/08 06:33:56;;;;;;;1.50;0.60;;;15.80;54.80;;;;;;4992691;28;20073;-63
2021/05/08 06:36:23;;;;;;;1.35;0.85;;;16.40;55.10;;;;;;4993046;28;20014;-62
2021/05/08 06:38:48;;;;;;;1.52;0.70;;;15.80;54.80;;;;;;4992797;28;20113;-62
2021/05/08 06:41:14;;;;;;;1.38;0.70;;;15.80;54.80;;;;;;4992732;28;20206;-62
2021/05/08 06:43:40;;;;;;;1.55;0.88;;;15.80;54.80;;;;;;4992725;28;20039;-63
2021/05/08 06:46:07;;;;;;;2.50;0.88;;;15.80;54.70;;;;;;4992930;28;20019;-63
2021/05/08 06:48:35;;;;;;;0.95;0.80;;;15.80;54.80;;;;;;4994158;28;20412;-62
2021/05/08 06:51:01;;;;;;;2.25;0.80;;;15.80;54.90;;;;;;4996156;28;20073;-62
2021/05/08 06:53:26;;;;;;;1.00;0.95;;;15.70;54.70;;;;;;4996084;28;20030;-62
2021/05/08 06:55:52;;;;;;;1.50;0.60;;;15.50;54.60;;;;;;4996096;28;20025;-62
2021/05/08 06:58:17;;;;;;;0.82;0.80;;;15.70;54.70;;;;;;4996203;28;20500;-62
2021/05/08 07:00:43;;;;;;;1.27;0.70;;;15.80;54.70;;;;;;4996137;28;20021;-62
2021/05/08 07:03:09;;;;;;;1.30;0.70;;;15.80;54.60;;;;;;4995931;28;20034;-61
2021/05/08 07:05:34;;;;;;;3.55;1.00;;;15.90;54.80;;;;;;4996013;28;20549;-62
2021/05/08 07:08:05;;;;;;;0.88;0.80;;;15.70;54.70;;;;;;4995916;28;20072;-62
2021/05/08 07:10:32;;;;;;;1.88;0.88;;;15.70;54.70;;;;;;4996056;28;20053;-62
2021/05/08 07:12:58;;;;;;;2.28;0.93;;;15.60;54.50;;;;;;4994697;28;20049;-62
2021/05/08 07:15:23;;;;;;;1.63;0.85;;;15.50;54.60;;;;;;4995850;28;20023;-62
2021/05/08 07:18:03;;;;;;;1.02;0.90;;;15.80;54.80;;;;;;4996102;28;20054;-62
2021/05/08 07:20:29;;;;;;;1.13;0.95;;;15.70;54.80;;;;;;4996035;28;20030;-62
2021/05/08 07:22:55;;;;;;;1.58;0.80;;;15.80;54.80;;;;;;4996033;28;20018;-62
2021/05/08 07:25:21;;;;;;;0.77;0.77;;;15.70;54.70;;;;;;4995651;28;20487;-62
2021/05/08 07:27:46;;;;;;;1.15;1.05;;;15.70;54.70;;;;;;4978256;28;20022;-62
2021/05/08 07:30:13;;;;;;;1.42;0.93;;;15.70;54.80;;;;;;4995653;28;20030;-62
2021/05/08 07:32:38;;;;;;;0.70;0.57;;;15.50;54.50;;;;;;4994289;28;20040;-62
2021/05/08 07:35:08;;;;;;;0.85;0.85;;;15.70;54.60;;;;;;4995846;28;20022;-62
2021/05/08 07:37:34;;;;;;;0.73;0.73;;;15.80;54.60;;;;;;4995820;28;20026;-62
2021/05/08 07:40:00;;;;;;;1.40;0.80;;;15.80;54.70;;;;;;4995764;28;20061;-62
2021/05/08 07:42:26;;;;;;;0.60;0.60;;;15.90;54.90;;;;;;4995371;28;20014;-62
2021/05/08 07:44:51;;;;;;;1.98;1.02;;;15.80;54.60;;;;;;4995482;28;20038;-63
2021/05/08 07:47:17;;;;;;;2.00;1.02;;;15.70;54.50;;;;;;4995368;28;20545;-62
2021/05/08 07:49:42;;;;;;;1.67;1.20;;;15.80;54.60;;;;;;4995347;28;20026;-62
2021/05/08 07:52:08;;;;;;;2.22;1.08;;;15.80;55.10;;;;;;4994010;28;20023;-62
2021/05/08 07:54:34;;;;;;;2.42;0.82;;;15.60;55.20;;;;;;4995329;28;20376;-62
2021/05/08 07:56:59;;;;;;;2.88;0.98;;;15.70;55.40;;;;;;4977678;28;20025;-62
2021/05/08 07:59:25;;;;;;;1.73;0.80;;;15.80;55.40;;;;;;4977418;28;20467;-62
2021/05/08 08:01:51;;;;;;;1.90;0.93;;;15.80;55.50;;;;;;4994653;28;20141;-62
2021/05/08 08:04:16;;;;;;;2.45;0.80;;;16.30;55.80;;;;;;4994891;28;20046;-62
2021/05/08 08:06:42;;;;;;;1.10;0.90;;;16.30;55.70;;;;;;4995141;28;20030;-62
2021/05/08 08:09:08;;;;;;;1.60;0.85;;;15.90;80.30;;;;;;4977492;28;20471;-62
2021/05/08 08:11:34;;;;;;;1.15;0.90;;;15.60;55.20;;;;;;4977518;28;20542;-62
2021/05/08 08:13:59;;;;;;;2.75;1.08;;;15.80;55.40;;;;;;4994842;28;20038;-62
2021/05/08 08:16:25;;;;;;;0.80;0.80;;;15.80;55.40;;;;;;4994978;28;20056;-62
2021/05/08 08:18:51;;;;;;;1.63;0.98;;;15.80;55.30;;;;;;4995061;28;20018;-62
2021/05/08 08:21:17;;;;;;;1.48;0.82;;;16.00;55.30;;;;;;4994802;28;20034;-61
2021/05/08 08:23:43;;;;;;;3.45;0.90;;;15.90;55.20;;;;;;4994753;28;20101;-61
2021/05/08 08:26:08;;;;;;;1.33;1.00;;;15.90;55.20;;;;;;4994629;28;20064;-61
2021/05/08 08:28:34;;;;;;;1.98;1.13;;;15.80;55.30;;;;;;4993298;28;20029;-61
2021/05/08 08:31:00;;;;;;;2.45;1.08;;;15.90;55.60;;;;;;4994749;28;20027;-61
2021/05/08 08:33:25;;;;;;;5.18;1.35;;;15.80;55.70;;;;;;4994284;28;20038;-61
2021/05/08 08:35:53;;;;;;;2.22;1.02;;;15.90;55.70;;;;;;4994493;28;20026;-61
2021/05/08 08:38:19;;;;;;;3.35;0.63;;;15.80;55.30;;;;;;4994638;28;20027;-61
2021/05/08 08:40:45;;;;;;;3.83;0.88;;;15.90;55.50;;;;;;4994323;28;20026;-60
2021/05/08 08:43:12;;;;;;;1.90;0.85;;;15.90;55.30;;;;;;4994324;28;20019;-61
2021/05/08 08:45:38;;;;;;;2.83;0.98;;;16.00;80.00;;;;;;4994243;28;20026;-61
2021/05/08 08:48:04;;;;;;;1.65;0.90;;;15.90;55.40;;;;;;4994363;28;20161;-61
2021/05/08 08:50:35;;;;;;;4.45;0.80;;;16.00;55.40;;;;;;4992978;28;20034;-61
2021/05/08 08:53:01;;;;;;;4.53;1.48;;;15.80;55.50;;;;;;4994079;28;20546;-61
2021/05/08 08:55:27;;;;;;;3.67;1.10;;;16.10;56.10;;;;;;4976682;28;20062;-62
2021/05/08 08:57:53;;;;;;;2.63;1.00;;;16.10;55.90;;;;;;4994330;28;20030;-62
2021/05/08 09:00:19;;;;;;;2.40;0.80;;;16.20;55.40;;;;;;4994348;28;20396;-61
2021/05/08 09:02:50;;;;;;;2.17;0.80;;;16.20;55.70;;;;;;4976531;28;20077;-61
2021/05/08 09:05:18;;;;;;;3.15;1.00;;;16.30;55.70;;;;;;4993834;28;20053;-61
2021/05/08 09:07:46;;;;;;;2.30;1.10;;;16.30;55.60;;;;;;4994196;28;20033;-61
2021/05/08 09:10:22;;;;;;;1.60;0.88;;;16.40;55.60;;;;;;4993856;28;20025;-61
2021/05/08 09:12:48;;;;;;;1.98;0.70;;;16.40;55.60;;;;;;4993755;28;20387;-61
2021/05/08 09:15:14;;;;;;;1.85;0.98;;;16.30;55.40;;;;;;4994113;28;20018;-61
2021/05/08 09:17:44;;;;;;;4.05;1.10;;;16.50;55.30;;;;;;4976365;28;20550;-61
2021/05/08 09:20:11;;;;;;;3.60;0.90;;;16.60;55.30;;;;;;4993975;28;20018;-61
2021/05/08 09:22:38;;;;;;;1.88;0.93;;;16.60;55.00;;;;;;4976243;28;20084;-61
2021/05/08 09:25:15;;;;;;;2.17;1.15;;;16.90;55.10;;;;;;4993711;28;20027;-61
2021/05/08 09:27:52;;;;;;;1.65;0.80;;;16.70;55.00;;;;;;4993853;28;20357;-60
2021/05/08 09:30:20;;;;;;;2.05;1.10;;;16.70;54.80;;;;;;4993566;28;20034;-61
2021/05/08 09:32:49;;;;;;;2.08;0.82;;;16.70;54.80;;;;;;4992498;28;20085;-61
2021/05/08 09:35:19;;;;;;;3.58;0.65;;;16.80;54.70;;;;;;4993845;28;20109;-61
2021/05/08 09:37:46;;;;;;;1.40;0.85;;;16.80;54.60;;;;;;4993451;28;20491;-61
2021/05/08 09:40:18;;;;;;;4.32;0.80;;;16.60;54.50;;;;;;4993749;28;20030;-61
2021/05/08 09:42:54;;;;;;;2.13;1.00;;;16.80;54.50;;;;;;4993509;28;20033;-60
2021/05/08 09:45:26;;;;;;;1.30;0.60;;;16.90;54.90;;;;;;4993742;28;20053;-61
2021/05/08 09:47:54;;;;;;;3.85;0.80;;;17.00;79.10;;;;;;4993681;28;20022;-61
2021/05/08 09:50:25;;;;;;;1.30;0.73;;;16.90;54.80;;;;;;4993611;28;20022;-61
2021/05/08 09:52:57;;;;;;;1.63;0.55;;;17.50;55.00;;;;;;4993667;28;20497;-61
2021/05/08 09:55:24;;;;;;;1.90;0.77;;;16.70;54.50;;;;;;4992457;28;20105;-61
2021/05/08 09:58:03;;;;;;;1.33;0.60;;;17.10;79.00;;;;;;4993290;28;20379;-61
2021/05/08 10:00:34;;;;;;;1.13;0.70;;;16.80;54.60;;;;;;4993445;28;20034;-61
2021/05/08 10:03:09;;;;;;;12.65;0.85;;;16.80;54.50;;;;;;4993420;28;20023;-63
2021/05/08 10:05:35;;;;;;;3.92;0.77;;;17.00;54.60;;;;;;4993631;28;20033;-61
2021/05/08 10:08:02;;;;;;;1.67;0.75;;;17.20;54.70;;;;;;4993220;28;20065;-61
2021/05/08 10:10:27;;;;;;;4.13;0.90;;;16.80;54.50;;;;;;4993374;28;20026;-61
2021/05/08 10:12:54;;;;;;;2.40;0.88;;;17.10;54.50;;;;;;4993430;28;20071;-61
2021/05/08 10:15:20;;;;;;;1.10;0.70;;;17.00;54.60;;;;;;4993206;28;20046;-61
2021/05/08 10:17:50;;;;;;;2.08;0.80;;;17.10;54.80;;;;;;4992907;28;20026;-61
2021/05/08 10:20:18;;;;;;;1.55;0.75;;;17.10;79.00;;;;;;4992925;28;20026;-62
2021/05/08 10:23:05;;;;;;;1.42;0.77;;;17.10;54.90;;;;;;4993263;28;20124;-61
2021/05/08 10:25:32;;;;;;;2.05;0.80;;;17.00;54.90;;;;;;4979387;28;20029;-61
2021/05/08 10:27:57;;;;;;;1.27;0.60;;;17.00;55.10;;;;;;4995747;28;20034;-61
2021/05/08 10:30:25;;;;;;;1.83;0.52;;;17.40;79.50;;;;;;4979168;28;20014;-60
2021/05/08 10:32:51;;;;;;;2.05;0.98;;;17.00;54.80;;;;;;4996518;28;20038;-61
2021/05/08 10:35:37;;;;;;;1.75;0.70;;;17.00;55.00;;;;;;4996613;28;20026;-61
2021/05/08 10:38:31;;;;;;;0.80;0.70;;;17.20;55.10;;;;;;4979277;28;20502;-61
2021/05/08 10:41:12;;;;;;;1.13;0.70;;;17.00;55.00;;;;;;4996631;28;20026;-60
2021/05/08 10:43:42;;;;;;;0.70;0.55;;;17.20;55.10;;;;;;4979027;28;20503;-60
2021/05/08 10:46:12;;;;;;;0.80;0.60;;;17.20;55.00;;;;;;4996574;28;20047;-61
2021/05/08 10:48:38;;;;;;;3.30;0.80;;;17.10;55.20;;;;;;4996603;28;20297;-61
2021/05/08 10:51:04;;;;;;;2.15;0.47;;;17.00;55.40;;;;;;4995144;28;20277;-61
2021/05/08 10:53:37;;;;;;;1.13;0.63;;;17.10;55.60;;;;;;4996317;28;20042;-61
2021/05/08 10:56:03;;;;;;;2.47;0.60;;;17.20;56.30;;;;;;4996333;28;20361;-61
2021/05/08 10:58:31;;;;;;;0.80;0.70;;;17.20;56.40;;;;;;4996336;28;20721;-61
2021/05/08 11:01:10;;;;;;;1.10;0.77;;;17.30;56.60;;;;;;4996157;28;20081;-61
2021/05/08 11:03:48;;;;;;;1.63;1.00;;;17.00;57.50;;;;;;4991293;28;20090;-61
2021/05/08 11:06:15;;;;;;;1.13;0.82;;;17.10;58.00;;;;;;4976608;28;20030;-61
2021/05/08 11:08:46;;;;;;;2.60;0.75;;;17.00;58.50;;;;;;4976940;28;20046;-61
2021/05/08 11:11:20;;;;;;;2.10;0.82;;;17.00;59.00;;;;;;4976620;28;20023;-61
2021/05/08 11:13:48;;;;;;;1.35;0.70;;;15.80;58.30;;;;;;4975335;28;20027;-61
2021/05/08 11:16:19;;;;;;;0.88;0.70;;;17.50;59.80;;;;;;4976722;28;20066;-61
2021/05/08 11:18:45;;;;;;;0.65;0.60;;;16.80;59.80;;;;;;4976556;28;20480;-61
2021/05/08 11:21:11;;;;;;;1.10;0.90;;;16.90;60.00;;;;;;4976381;28;20031;-61
2021/05/08 11:23:48;;;;;;;2.22;0.98;;;17.20;61.00;;;;;;4976378;28;20097;-61
2021/05/08 11:26:26;;;;;;;1.20;0.80;;;16.70;61.30;;;;;;4976330;28;20078;-61
2021/05/08 11:29:08;;;;;;;2.20;0.70;;;16.60;60.50;;;;;;4976487;28;20042;-63
2021/05/08 11:31:42;;;;;;;1.65;1.00;;;16.70;61.10;;;;;;4976239;28;20106;-63
2021/05/08 11:34:19;;;;;;;1.80;0.88;;;16.70;61.60;;;;;;4975799;28;20484;-62
2021/05/08 11:37:03;;;;;;;2.80;1.05;;;16.60;61.40;;;;;;4975570;28;20649;-62
2021/05/08 11:39:33;;;;;;;1.27;0.70;;;16.60;61.80;;;;;;4976274;28;20026;-62
2021/05/08 11:42:01;;;;;;;1.40;0.80;;;16.50;62.10;;;;;;4976040;28;20019;-63
2021/05/08 11:44:32;;;;;;;4.95;0.90;;;16.30;62.40;;;;;;4976280;28;20019;-63
2021/05/08 11:47:30;;;;;;;0.93;0.68;;;16.50;62.70;;;;;;4974706;28;20118;-62
2021/05/08 11:50:05;;;;;;;2.03;0.80;;;16.50;62.80;;;;;;4973055;28;20053;-62
2021/05/08 11:52:38;;;;;;;1.67;0.80;;;16.50;63.10;;;;;;4975773;28;20035;-62
2021/05/08 11:55:06;;;;;;;1.65;0.82;;;16.20;63.10;;;;;;4975837;28;20037;-62
2021/05/08 11:57:32;;;;;;;0.80;0.73;;;16.40;63.50;;;;;;4976083;28;20036;-62
2021/05/08 11:59:58;;;;;;;1.33;0.65;;;16.40;63.50;;;;;;4976050;28;20034;-62
2021/05/08 12:02:25;;;;;;;2.00;0.80;;;16.40;63.50;;;;;;4974282;28;20403;-62
2021/05/08 12:04:56;;;;;;;1.70;0.80;;;16.20;63.60;;;;;;4991667;28;20053;-62
2021/05/08 12:07:29;;;;;;;1.90;0.88;;;16.40;63.90;;;;;;4994814;28;20061;-62
2021/05/08 12:10:21;;;;;;;1.50;0.90;;;16.40;63.90;;;;;;4994904;28;20018;-62
2021/05/08 12:12:51;;;;;;;1.23;0.82;;;16.40;63.80;;;;;;4995137;28;20062;-62
2021/05/08 12:15:34;;;;;;;1.33;0.80;;;16.30;64.10;;;;;;4994906;28;20117;-63
2021/05/08 12:18:05;;;;;;;0.50;0.47;;;16.30;63.90;;;;;;4994785;28;20497;-63
2021/05/08 12:20:44;;;;;;;0.75;0.70;;;16.30;63.60;;;;;;4995080;28;20398;-63
2021/05/08 12:23:16;;;;;;;1.33;0.82;;;16.30;63.30;;;;;;4994989;28;20027;-63
2021/05/08 12:25:41;;;;;;;1.17;0.70;;;16.40;63.30;;;;;;4994866;28;20026;-62
2021/05/08 12:28:14;;;;;;;1.05;0.90;;;16.30;63.20;;;;;;4994614;28;20387;-62
2021/05/08 12:30:40;;;;;;;1.77;0.90;;;16.30;63.30;;;;;;4976993;28;20026;-62
2021/05/08 12:33:22;;;;;;;1.50;0.80;;;16.60;64.70;;;;;;4994653;28;20113;-61
2021/05/08 12:35:49;;;;;;;1.80;0.80;;;16.30;65.20;;;;;;4994422;28;20113;-62
2021/05/08 12:38:17;;;;;;;4.07;0.77;;;16.30;64.70;;;;;;4994481;28;20054;-62
2021/05/08 12:40:44;;;;;;;1.63;0.77;;;15.90;89.40;;;;;;4994606;28;20034;-63
2021/05/08 12:43:10;;;;;;;4.40;0.98;;;16.10;65.10;;;;;;4994326;28;20031;-62
2021/05/08 12:45:59;;;;;;;1.95;0.80;;;16.30;65.30;;;;;;4994496;28;20105;-62
2021/05/08 12:48:30;;;;;;;0.80;0.80;;;16.30;65.30;;;;;;4976859;28;20019;-62
2021/05/08 12:50:56;;;;;;;0.90;0.80;;;16.30;65.50;;;;;;4994454;28;20028;-63